Rechercher aéroport 
image banner adimage banner adimage banner ad
image banner ad

CL85 - Sonoma Pad 1

Situé à Sonoma, United States

ICAO - CL85, IATA -

Données fournies par Airmate  

Information générale

Coordonnées: N38°9'30" W122°27'23"
Élévation : 115 feet MSL.
 
Voir autres Aéroports à California

Données opérationnelles

Special qualification required
Heure actuelle UTC:
Heure actuelle locale:
Météo à : KDVO - Gnoss Field ( 9 km )
METAR: KDVO 270455Z AUTO 34010KT 10SM CLR 15/12 A2994 RMK AO2
Voir NOTAMs / SUP AIP / TFR affectant cet aéroport [VIEW]
Fréquences de communication: [VIEW]

Pistes:

Coordonnées de l'aéroport

Adresse: Sonoma United States

Vue satellite de CL85